Time;durP1;ratioP1;P1;durP2;ratioP2;P2;SDS_P1;SDS_P2;PMS_P1;PMS_P2;Temp;Humidity;BMP_temperature;BMP_pressure;BME280_temperature;BME280_humidity;BME280_pressure;Samples;Min_cycle;Max_cycle;Signal;HPM_P1;HPM_P2
2023/10/06 00:01:12;;;;;;;12.93;5.15;;;;;;;;;;5114964;28;20018;-40
2023/10/06 00:03:38;;;;;;;14.40;4.97;;;;;;;;;;5114920;28;20034;-40
2023/10/06 00:06:04;;;;;;;16.33;5.28;;;;;;;;;;5114817;28;20031;-40
2023/10/06 00:08:32;;;;;;;12.98;4.90;;;;;;;;;;5114815;28;20339;-40
2023/10/06 00:11:10;;;;;;;13.73;5.30;;;;;;;;;;5114813;28;20378;-41
2023/10/06 00:13:37;;;;;;;16.08;5.07;;;;;;;;;;5114412;28;20076;-40
2023/10/06 00:16:05;;;;;;;14.98;5.22;;;;;;;;;;5114571;28;20446;-40
2023/10/06 00:18:31;;;;;;;10.68;5.05;;;;;;;;;;5114357;28;20454;-40
2023/10/06 00:20:57;;;;;;;16.17;5.55;;;;;;;;;;5114305;28;20016;-40
2023/10/06 00:23:22;;;;;;;16.38;5.30;;;;;;;;;;5114195;28;20022;-40
2023/10/06 00:25:52;;;;;;;14.88;5.30;;;;;;;;;;5114529;28;20008;-40
2023/10/06 00:28:27;;;;;;;14.60;4.78;;;;;;;;;;5114489;28;20102;-40
2023/10/06 00:30:56;;;;;;;11.05;5.22;;;;;;;;;;5114786;28;20020;-41
2023/10/06 00:33:22;;;;;;;18.55;5.45;;;;;;;;;;5114451;28;20535;-41
2023/10/06 00:35:48;;;;;;;15.95;5.28;;;;;;;;;;5114041;28;20047;-41
2023/10/06 00:38:16;;;;;;;15.30;5.18;;;;;;;;;;5114389;28;20039;-41
2023/10/06 00:40:51;;;;;;;14.10;5.20;;;;;;;;;;5114378;28;20026;-41
2023/10/06 00:43:35;;;;;;;12.18;5.60;;;;;;;;;;5114031;28;20011;-41
2023/10/06 00:46:06;;;;;;;15.90;5.28;;;;;;;;;;5114297;28;20061;-41
2023/10/06 00:48:32;;;;;;;16.33;5.45;;;;;;;;;;5114257;28;20019;-40
2023/10/06 00:50:58;;;;;;;13.57;5.75;;;;;;;;;;5113799;28;20035;-40
2023/10/06 00:53:26;;;;;;;18.05;5.82;;;;;;;;;;5114452;28;20051;-40
2023/10/06 00:55:54;;;;;;;13.95;5.50;;;;;;;;;;5115551;28;20026;-40
2023/10/06 00:58:19;;;;;;;13.77;5.30;;;;;;;;;;5120640;28;20038;-40
2023/10/06 01:00:45;;;;;;;18.25;5.55;;;;;;;;;;5121328;28;20016;-41
2023/10/06 01:03:14;;;;;;;12.98;5.30;;;;;;;;;;5121234;28;20447;-41
2023/10/06 01:05:40;;;;;;;15.15;5.68;;;;;;;;;;5120983;28;20024;-40
2023/10/06 01:08:07;;;;;;;13.52;5.93;;;;;;;;;;5120932;28;20415;-40
2023/10/06 01:10:34;;;;;;;17.90;5.80;;;;;;;;;;5121810;28;20023;-41
2023/10/06 01:13:11;;;;;;;14.20;5.57;;;;;;;;;;5120538;28;20030;-40
2023/10/06 01:15:37;;;;;;;14.18;5.50;;;;;;;;;;5120375;28;20022;-40
2023/10/06 01:18:06;;;;;;;13.23;5.22;;;;;;;;;;5120862;28;20019;-40
2023/10/06 01:20:40;;;;;;;22.00;5.68;;;;;;;;;;5121307;28;20007;-40
2023/10/06 01:23:21;;;;;;;16.88;5.53;;;;;;;;;;5120759;28;20023;-41
2023/10/06 01:25:48;;;;;;;13.38;5.45;;;;;;;;;;5121014;28;20024;-40
2023/10/06 01:28:13;;;;;;;10.13;5.32;;;;;;;;;;5120699;28;20031;-40
2023/10/06 01:30:39;;;;;;;12.50;5.37;;;;;;;;;;5121005;28;20022;-40
2023/10/06 01:33:05;;;;;;;13.97;5.63;;;;;;;;;;5120677;28;20257;-41
2023/10/06 01:35:33;;;;;;;15.90;5.82;;;;;;;;;;5120904;28;20295;-41
2023/10/06 01:38:00;;;;;;;17.25;5.60;;;;;;;;;;5120627;28;20480;-40
2023/10/06 01:42:50;;;;;;;14.13;5.53;;;;;;;;;;5120660;28;20024;-40
2023/10/06 01:45:21;;;;;;;13.32;5.30;;;;;;;;;;5120291;28;20257;-40
2023/10/06 01:47:46;;;;;;;16.25;5.88;;;;;;;;;;5120245;28;20085;-40
2023/10/06 01:50:11;;;;;;;19.80;5.35;;;;;;;;;;5120086;28;20063;-40
2023/10/06 01:52:39;;;;;;;17.90;5.55;;;;;;;;;;5120259;28;20024;-40
2023/10/06 01:55:09;;;;;;;16.85;5.80;;;;;;;;;;5120411;28;20069;-48
2023/10/06 01:57:35;;;;;;;20.85;5.93;;;;;;;;;;5120493;28;20023;-40
2023/10/06 02:00:00;;;;;;;15.82;5.22;;;;;;;;;;5120188;28;20366;-40
2023/10/06 02:02:26;;;;;;;15.52;5.40;;;;;;;;;;5120102;28;20069;-40
2023/10/06 02:04:56;;;;;;;18.40;5.88;;;;;;;;;;5120034;28;20024;-40
2023/10/06 02:07:22;;;;;;;15.75;5.10;;;;;;;;;;5118875;28;20089;-40
2023/10/06 02:09:48;;;;;;;12.40;5.30;;;;;;;;;;5117126;28;20015;-40
2023/10/06 02:12:15;;;;;;;15.57;5.93;;;;;;;;;;5117117;28;20031;-40
2023/10/06 02:14:41;;;;;;;14.73;5.50;;;;;;;;;;5116888;28;20515;-40
2023/10/06 02:17:08;;;;;;;14.65;5.45;;;;;;;;;;5116630;28;20015;-40
2023/10/06 02:19:34;;;;;;;16.73;5.78;;;;;;;;;;5116957;28;20076;-40
2023/10/06 02:21:59;;;;;;;13.65;5.10;;;;;;;;;;5116620;28;20450;-40
2023/10/06 02:24:25;;;;;;;15.60;5.30;;;;;;;;;;5116831;28;20027;-40
2023/10/06 02:27:23;;;;;;;11.93;5.07;;;;;;;;;;5117207;28;20364;-40
2023/10/06 02:29:43;;;;;;;19.80;5.28;;;;;;;;;;5112375;28;20024;-40
2023/10/06 02:32:08;;;;;;;16.70;5.03;;;;;;;;;;5116430;28;20023;-40
2023/10/06 02:34:38;;;;;;;11.85;5.15;;;;;;;;;;5116295;28;20099;-40
2023/10/06 02:37:06;;;;;;;14.57;4.90;;;;;;;;;;5116657;28;20031;-40
2023/10/06 02:39:34;;;;;;;14.95;5.43;;;;;;;;;;5116320;28;20019;-40
2023/10/06 02:42:07;;;;;;;18.42;5.60;;;;;;;;;;5116591;28;20016;-41
2023/10/06 02:44:37;;;;;;;13.75;4.88;;;;;;;;;;5116512;28;20057;-40
2023/10/06 02:47:04;;;;;;;13.00;5.57;;;;;;;;;;5116211;28;20047;-40
2023/10/06 02:49:35;;;;;;;12.93;5.07;;;;;;;;;;5115932;28;20052;-40
2023/10/06 02:52:00;;;;;;;15.95;5.70;;;;;;;;;;5116368;28;20042;-40
2023/10/06 02:54:27;;;;;;;16.45;4.80;;;;;;;;;;5116215;28;20015;-40
2023/10/06 02:56:55;;;;;;;14.88;4.97;;;;;;;;;;5115952;28;20016;-40
2023/10/06 02:59:20;;;;;;;14.02;5.25;;;;;;;;;;5116151;28;20030;-40
2023/10/06 03:01:52;;;;;;;15.05;5.53;;;;;;;;;;5116179;28;20033;-40
2023/10/06 03:04:26;;;;;;;11.70;4.88;;;;;;;;;;5115738;28;20035;-40
2023/10/06 03:06:58;;;;;;;13.27;5.53;;;;;;;;;;5115981;28;20035;-40
2023/10/06 03:09:37;;;;;;;15.98;5.05;;;;;;;;;;5115975;28;20375;-40
2023/10/06 03:12:15;;;;;;;19.45;5.70;;;;;;;;;;5115957;28;20020;-40
2023/10/06 03:14:41;;;;;;;13.68;4.90;;;;;;;;;;5115758;28;20156;-40
2023/10/06 03:17:08;;;;;;;14.45;5.20;;;;;;;;;;5116034;28;20455;-40
2023/10/06 03:19:34;;;;;;;11.57;4.93;;;;;;;;;;5114574;28;20381;-40
2023/10/06 03:22:04;;;;;;;14.00;4.53;;;;;;;;;;5115748;28;20030;-39
2023/10/06 03:24:33;;;;;;;14.07;5.20;;;;;;;;;;5098815;28;20020;-40
2023/10/06 03:26:59;;;;;;;17.80;5.50;;;;;;;;;;5115649;28;20027;-40
2023/10/06 03:29:44;;;;;;;14.18;5.35;;;;;;;;;;5115590;28;20026;-40
2023/10/06 03:32:22;;;;;;;12.07;4.97;;;;;;;;;;5115235;28;20151;-40
2023/10/06 03:34:47;;;;;;;14.10;5.03;;;;;;;;;;5115416;28;20373;-40
2023/10/06 03:37:15;;;;;;;18.15;4.95;;;;;;;;;;5115216;28;20080;-40
2023/10/06 03:39:50;;;;;;;16.50;4.95;;;;;;;;;;5115434;28;20023;-40
2023/10/06 03:42:18;;;;;;;14.57;5.40;;;;;;;;;;5115887;28;20527;-41
2023/10/06 03:44:45;;;;;;;19.98;5.07;;;;;;;;;;5115291;28;20023;-40
2023/10/06 03:47:10;;;;;;;15.32;5.10;;;;;;;;;;5115213;28;20426;-41
2023/10/06 03:49:37;;;;;;;19.38;4.93;;;;;;;;;;5114899;28;20055;-41
2023/10/06 03:52:03;;;;;;;16.20;4.70;;;;;;;;;;5115179;28;20098;-41
2023/10/06 03:54:29;;;;;;;18.83;5.55;;;;;;;;;;5115300;28;20150;-41
2023/10/06 03:56:55;;;;;;;23.75;5.82;;;;;;;;;;5115059;28;20054;-42
2023/10/06 03:59:21;;;;;;;14.17;5.50;;;;;;;;;;5114767;28;20070;-41
2023/10/06 04:01:46;;;;;;;15.55;5.57;;;;;;;;;;5114695;28;20253;-41
2023/10/06 04:04:15;;;;;;;14.87;5.67;;;;;;;;;;5114952;28;20024;-41
2023/10/06 04:06:40;;;;;;;17.60;5.70;;;;;;;;;;5114883;28;20262;-29
2023/10/06 04:09:06;;;;;;;18.73;6.00;;;;;;;;;;5114823;28;20366;-29
2023/10/06 04:11:34;;;;;;;16.25;5.35;;;;;;;;;;5114758;28;20031;-29
2023/10/06 04:13:59;;;;;;;16.52;6.10;;;;;;;;;;5114660;28;20046;-29
2023/10/06 04:16:25;;;;;;;17.38;6.07;;;;;;;;;;5114670;28;20358;-29
2023/10/06 04:18:50;;;;;;;19.38;6.05;;;;;;;;;;5114661;28;20011;-29
2023/10/06 04:21:15;;;;;;;15.27;6.00;;;;;;;;;;5114428;28;20500;-29
2023/10/06 04:23:43;;;;;;;18.73;6.25;;;;;;;;;;5114392;28;20256;-28
2023/10/06 04:26:09;;;;;;;15.38;6.03;;;;;;;;;;5096008;28;20027;-29
2023/10/06 04:28:35;;;;;;;17.10;6.25;;;;;;;;;;5115439;28;20446;-29
2023/10/06 04:31:00;;;;;;;15.73;5.65;;;;;;;;;;5113877;28;20030;-29
2023/10/06 04:33:28;;;;;;;18.70;7.03;;;;;;;;;;5114304;28;20016;-28
2023/10/06 04:35:56;;;;;;;18.23;6.70;;;;;;;;;;5114420;28;20054;-29
2023/10/06 04:38:21;;;;;;;15.70;6.45;;;;;;;;;;5114387;28;20099;-29
2023/10/06 04:40:47;;;;;;;11.98;6.15;;;;;;;;;;5115092;28;20068;-29
2023/10/06 04:43:17;;;;;;;13.43;6.43;;;;;;;;;;5114596;28;20331;-29
2023/10/06 04:45:43;;;;;;;21.50;6.53;;;;;;;;;;5114376;28;20019;-29
2023/10/06 04:48:08;;;;;;;13.95;6.90;;;;;;;;;;5114496;28;20026;-29
2023/10/06 04:50:34;;;;;;;16.77;6.55;;;;;;;;;;5113803;28;20059;-29
2023/10/06 04:52:59;;;;;;;20.83;6.63;;;;;;;;;;5114315;28;20024;-29
2023/10/06 04:55:24;;;;;;;13.93;6.57;;;;;;;;;;5114133;28;20053;-29
2023/10/06 04:57:49;;;;;;;17.25;6.10;;;;;;;;;;5114392;28;20090;-29
2023/10/06 05:00:19;;;;;;;15.48;6.30;;;;;;;;;;5114467;28;20046;-29
2023/10/06 05:02:44;;;;;;;19.73;6.28;;;;;;;;;;5114971;28;20442;-29
2023/10/06 05:05:33;;;;;;;14.70;6.22;;;;;;;;;;5114336;28;20076;-29
2023/10/06 05:07:58;;;;;;;18.67;6.65;;;;;;;;;;5114076;28;20020;-29
2023/10/06 05:10:27;;;;;;;17.70;5.63;;;;;;;;;;5113751;28;20583;-29
2023/10/06 05:12:52;;;;;;;16.85;6.32;;;;;;;;;;5113740;28;20257;-29
2023/10/06 05:15:23;;;;;;;18.08;6.10;;;;;;;;;;5114323;28;20027;-29
2023/10/06 05:17:55;;;;;;;15.55;5.78;;;;;;;;;;5114471;28;20018;-29
2023/10/06 05:20:21;;;;;;;22.40;5.97;;;;;;;;;;5113833;28;20023;-29
2023/10/06 05:22:48;;;;;;;17.00;5.47;;;;;;;;;;5114411;28;20017;-29
2023/10/06 05:25:14;;;;;;;18.00;5.80;;;;;;;;;;5113945;28;20418;-29
2023/10/06 05:27:39;;;;;;;15.00;5.55;;;;;;;;;;5113703;28;20127;-29
2023/10/06 05:30:06;;;;;;;12.30;4.90;;;;;;;;;;5113939;28;20386;-29
2023/10/06 05:32:35;;;;;;;16.63;6.00;;;;;;;;;;5113575;28;20265;-29
2023/10/06 05:35:00;;;;;;;15.75;5.60;;;;;;;;;;5113739;28;20155;-29
2023/10/06 05:37:25;;;;;;;16.53;5.50;;;;;;;;;;5113566;28;20504;-33
2023/10/06 05:39:51;;;;;;;19.47;5.47;;;;;;;;;;5113870;28;20254;-29
2023/10/06 05:42:16;;;;;;;16.92;5.30;;;;;;;;;;5113719;28;20333;-29
2023/10/06 05:44:42;;;;;;;18.50;5.43;;;;;;;;;;5117245;28;20047;-29
2023/10/06 05:47:08;;;;;;;10.30;5.10;;;;;;;;;;5118362;28;20058;-29
2023/10/06 05:49:33;;;;;;;13.45;5.40;;;;;;;;;;5117266;28;20529;-29
2023/10/06 05:51:59;;;;;;;12.63;5.50;;;;;;;;;;5117472;28;20015;-29
2023/10/06 05:54:26;;;;;;;16.02;5.13;;;;;;;;;;5117147;28;20020;-29
2023/10/06 05:56:53;;;;;;;18.38;5.38;;;;;;;;;;5117378;28;20088;-29
2023/10/06 05:59:21;;;;;;;10.57;5.32;;;;;;;;;;5117013;28;20011;-29
2023/10/06 06:01:55;;;;;;;10.43;5.05;;;;;;;;;;5117272;28;20023;-28
2023/10/06 06:04:27;;;;;;;14.57;5.25;;;;;;;;;;5116892;28;20047;-29
2023/10/06 06:06:56;;;;;;;18.67;5.80;;;;;;;;;;5117275;28;20046;-30
2023/10/06 06:09:21;;;;;;;16.20;5.32;;;;;;;;;;5117118;28;20024;-28
2023/10/06 06:11:46;;;;;;;15.85;5.20;;;;;;;;;;5116607;28;20016;-28
2023/10/06 06:14:11;;;;;;;15.47;5.17;;;;;;;;;;5116648;28;20531;-29
2023/10/06 06:16:36;;;;;;;14.87;5.80;;;;;;;;;;5114054;28;20269;-30
2023/10/06 06:19:05;;;;;;;13.33;5.10;;;;;;;;;;5114505;28;20296;-28
2023/10/06 06:21:30;;;;;;;15.10;5.40;;;;;;;;;;5114758;28;20258;-28
2023/10/06 06:23:55;;;;;;;12.70;5.10;;;;;;;;;;5096412;28;20519;-28
2023/10/06 06:26:21;;;;;;;19.80;5.40;;;;;;;;;;5114393;28;20443;-28
2023/10/06 06:28:46;;;;;;;17.23;6.20;;;;;;;;;;5114656;28;20299;-28
2023/10/06 06:31:18;;;;;;;12.75;4.70;;;;;;;;;;5115849;28;20023;-29
2023/10/06 06:33:43;;;;;;;21.05;5.45;;;;;;;;;;5116451;28;20020;-30
2023/10/06 06:36:08;;;;;;;15.23;5.63;;;;;;;;;;5115085;28;20008;-29
2023/10/06 06:38:39;;;;;;;21.73;5.90;;;;;;;;;;5115396;28;20762;-30
2023/10/06 06:41:05;;;;;;;21.42;5.10;;;;;;;;;;5116076;28;20262;-35
2023/10/06 06:43:31;;;;;;;21.10;5.78;;;;;;;;;;5116498;28;20538;-30
2023/10/06 06:45:58;;;;;;;16.70;5.22;;;;;;;;;;5116196;28;20051;-29
2023/10/06 06:48:24;;;;;;;16.58;5.60;;;;;;;;;;5115961;28;20096;-29
2023/10/06 06:50:49;;;;;;;13.02;4.97;;;;;;;;;;5116018;28;20051;-29
2023/10/06 06:53:18;;;;;;;12.95;5.40;;;;;;;;;;5115948;28;20020;-30
2023/10/06 06:55:43;;;;;;;15.73;5.35;;;;;;;;;;5116251;28;20051;-29
2023/10/06 06:58:12;;;;;;;15.27;5.57;;;;;;;;;;5115846;28;20043;-30
2023/10/06 07:00:39;;;;;;;13.00;4.88;;;;;;;;;;5115825;28;20026;-29
2023/10/06 07:03:05;;;;;;;20.77;5.72;;;;;;;;;;5116204;28;20415;-29
2023/10/06 07:05:30;;;;;;;14.02;5.68;;;;;;;;;;5115899;28;20055;-29
2023/10/06 07:07:56;;;;;;;15.10;5.63;;;;;;;;;;5116290;28;20020;-29
2023/10/06 07:10:22;;;;;;;17.30;5.47;;;;;;;;;;5116030;28;20297;-29
2023/10/06 07:12:48;;;;;;;16.55;5.53;;;;;;;;;;5115975;28;20457;-30
2023/10/06 07:15:16;;;;;;;15.82;5.47;;;;;;;;;;5115477;28;20019;-30
2023/10/06 07:17:45;;;;;;;16.25;5.65;;;;;;;;;;5115528;28;20042;-29
2023/10/06 07:20:14;;;;;;;19.65;5.18;;;;;;;;;;5115790;28;20019;-29
2023/10/06 07:22:39;;;;;;;12.57;5.20;;;;;;;;;;5115807;28;20016;-30
2023/10/06 07:25:04;;;;;;;13.97;5.00;;;;;;;;;;5115451;28;20023;-29
2023/10/06 07:27:34;;;;;;;17.23;5.47;;;;;;;;;;5115550;28;20277;-32
2023/10/06 07:30:03;;;;;;;22.30;5.30;;;;;;;;;;5115567;28;20423;-29
2023/10/06 07:32:28;;;;;;;13.85;5.35;;;;;;;;;;5115156;28;20019;-30
2023/10/06 07:34:54;;;;;;;10.38;4.97;;;;;;;;;;5115375;28;20032;-29
2023/10/06 07:37:20;;;;;;;15.67;5.57;;;;;;;;;;5115130;28;20378;-29
2023/10/06 07:39:46;;;;;;;17.48;5.88;;;;;;;;;;5115878;28;20275;-29
2023/10/06 07:42:16;;;;;;;14.27;5.20;;;;;;;;;;5115269;28;20012;-29
2023/10/06 07:44:41;;;;;;;15.57;5.30;;;;;;;;;;5115308;28;20016;-28
2023/10/06 07:47:07;;;;;;;15.33;5.17;;;;;;;;;;5114902;28;20020;-28
2023/10/06 07:49:34;;;;;;;16.23;5.37;;;;;;;;;;5114657;28;20286;-28
2023/10/06 07:51:59;;;;;;;14.32;5.22;;;;;;;;;;5115109;28;20616;-28
2023/10/06 07:54:24;;;;;;;15.77;5.18;;;;;;;;;;5114942;28;20020;-28
2023/10/06 07:56:50;;;;;;;17.60;5.30;;;;;;;;;;5115095;28;20035;-28
2023/10/06 07:59:15;;;;;;;17.05;5.40;;;;;;;;;;5114751;28;20133;-29
2023/10/06 08:01:40;;;;;;;14.83;4.97;;;;;;;;;;5114864;28;20020;-29
2023/10/06 08:04:05;;;;;;;14.93;4.80;;;;;;;;;;5114984;28;20462;-29
2023/10/06 08:06:30;;;;;;;16.55;4.70;;;;;;;;;;5113884;28;20039;-29
2023/10/06 08:08:56;;;;;;;14.50;4.73;;;;;;;;;;5114512;28;20026;-29
2023/10/06 08:11:21;;;;;;;12.93;4.60;;;;;;;;;;5115049;28;20034;-29
2023/10/06 08:13:46;;;;;;;13.27;4.80;;;;;;;;;;5114353;28;20377;-28
2023/10/06 08:16:12;;;;;;;14.10;4.80;;;;;;;;;;5114514;28;20028;-29
2023/10/06 08:18:39;;;;;;;12.63;4.47;;;;;;;;;;5114724;28;20462;-28
2023/10/06 08:21:05;;;;;;;17.35;5.05;;;;;;;;;;5114567;28;20015;-28
2023/10/06 08:23:35;;;;;;;13.27;4.70;;;;;;;;;;5115104;28;20098;-28
2023/10/06 08:26:07;;;;;;;13.70;4.88;;;;;;;;;;5114483;28;20458;-28
2023/10/06 08:28:32;;;;;;;16.38;5.00;;;;;;;;;;5114497;28;20016;-29
2023/10/06 08:31:00;;;;;;;12.20;5.05;;;;;;;;;;5114521;28;20090;-28
2023/10/06 08:33:27;;;;;;;13.07;4.93;;;;;;;;;;5114850;28;20077;-28
2023/10/06 08:35:56;;;;;;;14.25;4.93;;;;;;;;;;5114294;28;20344;-28
2023/10/06 08:38:21;;;;;;;12.00;4.95;;;;;;;;;;5114101;28;20101;-28
2023/10/06 08:40:48;;;;;;;17.75;5.18;;;;;;;;;;5114324;28;20080;-28
2023/10/06 08:43:17;;;;;;;13.50;4.53;;;;;;;;;;5114294;28;20110;-28
2023/10/06 08:45:43;;;;;;;20.17;5.05;;;;;;;;;;5114022;28;20020;-28
2023/10/06 08:48:11;;;;;;;21.50;5.20;;;;;;;;;;5114261;28;20031;-29
2023/10/06 08:50:37;;;;;;;14.63;4.93;;;;;;;;;;5113677;28;20116;-28
2023/10/06 08:53:05;;;;;;;14.15;4.93;;;;;;;;;;5114070;28;20454;-29
2023/10/06 08:55:30;;;;;;;11.52;4.80;;;;;;;;;;5113984;28;20015;-29
2023/10/06 08:57:58;;;;;;;16.17;5.20;;;;;;;;;;5114240;28;20427;-29
2023/10/06 09:00:31;;;;;;;14.80;4.70;;;;;;;;;;5113872;28;20072;-28
2023/10/06 09:03:03;;;;;;;16.67;4.55;;;;;;;;;;5113867;28;20457;-29
2023/10/06 09:05:28;;;;;;;;;;;;;;;;;;5113462;28;20026;-29
2023/10/06 09:07:57;;;;;;;23.95;4.93;;;;;;;;;;5113481;28;19908;-29
2023/10/06 09:10:22;;;;;;;13.98;4.85;;;;;;;;;;5113348;28;20024;-29
2023/10/06 09:12:57;;;;;;;9.02;4.28;;;;;;;;;;5113482;28;20091;-29
2023/10/06 09:15:22;;;;;;;13.13;4.57;;;;;;;;;;5113826;28;20069;-29
2023/10/06 09:17:47;;;;;;;13.60;5.10;;;;;;;;;;5116450;28;20019;-29
2023/10/06 09:20:13;;;;;;;14.60;5.33;;;;;;;;;;5118223;28;20026;-29
2023/10/06 09:22:45;;;;;;;14.75;4.80;;;;;;;;;;5117937;28;20030;-29
2023/10/06 09:25:10;;;;;;;17.27;5.25;;;;;;;;;;5117604;28;20015;-29
2023/10/06 09:27:37;;;;;;;14.18;5.13;;;;;;;;;;5117534;28;20030;-29
2023/10/06 09:30:12;;;;;;;13.38;4.30;;;;;;;;;;5117462;28;20027;-29
2023/10/06 09:32:39;;;;;;;15.70;5.00;;;;;;;;;;5117783;28;20121;-29
2023/10/06 09:35:21;;;;;;;15.98;4.70;;;;;;;;;;5117706;28;20085;-29
2023/10/06 09:37:46;;;;;;;16.80;4.45;;;;;;;;;;5117687;28;20015;-29
2023/10/06 09:40:21;;;;;;;16.13;4.85;;;;;;;;;;5117382;28;20007;-29
2023/10/06 09:42:47;;;;;;;15.13;4.80;;;;;;;;;;5117455;28;20011;-29
2023/10/06 09:45:15;;;;;;;13.43;4.47;;;;;;;;;;5117528;28;20382;-29
2023/10/06 09:47:45;;;;;;;11.07;4.20;;;;;;;;;;5099206;28;20054;-29
2023/10/06 09:50:10;;;;;;;10.25;4.35;;;;;;;;;;5116978;28;20410;-29
2023/10/06 09:52:39;;;;;;;15.17;4.47;;;;;;;;;;5116967;28;20016;-30
2023/10/06 09:55:06;;;;;;;17.50;4.63;;;;;;;;;;5117195;28;20460;-29
2023/10/06 09:57:35;;;;;;;15.23;4.50;;;;;;;;;;5117353;28;20086;-29
2023/10/06 10:00:00;;;;;;;12.90;4.35;;;;;;;;;;5117351;28;20478;-29
2023/10/06 10:02:26;;;;;;;12.82;4.30;;;;;;;;;;5116963;28;20051;-29
2023/10/06 10:04:54;;;;;;;18.02;4.30;;;;;;;;;;5117479;28;20028;-30
2023/10/06 10:07:19;;;;;;;13.55;4.22;;;;;;;;;;5116435;28;20095;-29
2023/10/06 10:09:45;;;;;;;12.55;4.10;;;;;;;;;;5115341;28;20072;-30
2023/10/06 10:12:27;;;;;;;15.48;4.35;;;;;;;;;;5115363;28;20039;-30
2023/10/06 10:15:07;;;;;;;13.98;4.60;;;;;;;;;;5116449;28;20020;-29
2023/10/06 10:17:39;;;;;;;13.63;3.95;;;;;;;;;;5116814;28;20016;-29
2023/10/06 10:20:09;;;;;;;12.00;4.07;;;;;;;;;;5116836;28;20051;-29
2023/10/06 10:22:34;;;;;;;12.30;4.00;;;;;;;;;;5116693;28;20016;-29
2023/10/06 10:25:00;;;;;;;15.43;4.88;;;;;;;;;;5116389;28;20416;-30
2023/10/06 10:27:25;;;;;;;12.10;3.90;;;;;;;;;;5116242;28;20023;-29
2023/10/06 10:29:50;;;;;;;13.60;3.88;;;;;;;;;;5114322;28;20049;-29
2023/10/06 10:32:17;;;;;;;9.85;3.75;;;;;;;;;;5116578;28;20023;-30
2023/10/06 10:35:01;;;;;;;15.65;4.13;;;;;;;;;;5116102;28;20119;-29
2023/10/06 10:37:26;;;;;;;24.80;4.32;;;;;;;;;;5116043;28;20027;-29
2023/10/06 10:39:52;;;;;;;16.40;4.30;;;;;;;;;;5116349;28;20344;-29
2023/10/06 10:42:21;;;;;;;11.27;3.67;;;;;;;;;;5116207;28;20016;-29
2023/10/06 10:44:49;;;;;;;13.13;3.92;;;;;;;;;;5116167;28;20020;-29
2023/10/06 10:47:15;;;;;;;11.88;3.70;;;;;;;;;;5116122;28;20035;-29
2023/10/06 10:49:41;;;;;;;11.63;3.40;;;;;;;;;;5115892;28;20039;-29
2023/10/06 10:52:07;;;;;;;13.20;4.00;;;;;;;;;;5115477;28;20030;-29
2023/10/06 10:54:33;;;;;;;13.60;3.47;;;;;;;;;;5115825;28;20039;-29
2023/10/06 10:57:05;;;;;;;12.63;3.50;;;;;;;;;;5115751;28;20100;-29
2023/10/06 10:59:49;;;;;;;15.75;4.05;;;;;;;;;;5115628;28;20030;-29
2023/10/06 11:02:15;;;;;;;13.55;3.95;;;;;;;;;;5115608;28;20012;-29
2023/10/06 11:04:42;;;;;;;19.35;4.03;;;;;;;;;;5115940;28;20024;-29
2023/10/06 11:07:09;;;;;;;14.27;3.80;;;;;;;;;;5116122;28;20024;-29
2023/10/06 11:09:41;;;;;;;13.57;4.03;;;;;;;;;;5116003;28;20047;-29
2023/10/06 11:12:15;;;;;;;15.32;3.63;;;;;;;;;;5115920;28;20458;-29
2023/10/06 11:14:41;;;;;;;13.60;3.95;;;;;;;;;;5115689;28;20024;-29
2023/10/06 11:17:06;;;;;;;13.18;3.50;;;;;;;;;;5115513;28;20480;-29
2023/10/06 11:19:32;;;;;;;10.73;3.78;;;;;;;;;;5115763;28;20016;-29
2023/10/06 11:22:28;;;;;;;12.48;3.35;;;;;;;;;;5115444;28;20016;-29
2023/10/06 11:24:57;;;;;;;17.35;3.90;;;;;;;;;;5093947;28;20493;-29
2023/10/06 11:27:22;;;;;;;14.43;3.78;;;;;;;;;;5115627;28;20027;-29
2023/10/06 11:29:50;;;;;;;14.07;3.38;;;;;;;;;;5115846;28;20023;-29
2023/10/06 11:32:17;;;;;;;13.68;3.55;;;;;;;;;;5115487;28;20069;-29
2023/10/06 11:34:43;;;;;;;13.02;3.40;;;;;;;;;;5115454;28;20044;-29
2023/10/06 11:37:08;;;;;;;14.57;3.22;;;;;;;;;;5115531;28;20351;-29
2023/10/06 11:39:34;;;;;;;9.50;3.20;;;;;;;;;;5115973;28;20023;-29
2023/10/06 11:42:18;;;;;;;13.70;3.30;;;;;;;;;;5114312;28;20072;-29
2023/10/06 11:44:43;;;;;;;11.82;3.65;;;;;;;;;;5115168;28;20031;-29
2023/10/06 11:47:09;;;;;;;13.33;3.50;;;;;;;;;;5115182;28;20038;-30
2023/10/06 11:49:51;;;;;;;14.23;3.80;;;;;;;;;;5114634;28;20036;-29
2023/10/06 11:52:17;;;;;;;;;;;;;;;;;;5115412;28;20023;-29
2023/10/06 11:54:43;;;;;;;9.07;3.45;;;;;;;;;;5114694;28;19957;-30
2023/10/06 11:57:08;;;;;;;10.97;3.40;;;;;;;;;;5114803;28;20011;-30
2023/10/06 11:59:33;;;;;;;16.27;3.47;;;;;;;;;;5115099;28;20315;-29
2023/10/06 12:02:05;;;;;;;12.90;3.30;;;;;;;;;;5114695;28;20261;-29
2023/10/06 12:04:31;;;;;;;11.82;2.85;;;;;;;;;;5114889;28;20026;-29
2023/10/06 12:06:58;;;;;;;12.88;3.38;;;;;;;;;;5114881;28;20110;-29
2023/10/06 12:09:24;;;;;;;13.38;3.30;;;;;;;;;;5114519;28;20062;-29
2023/10/06 12:11:50;;;;;;;14.35;3.10;;;;;;;;;;5114675;28;20020;-29
2023/10/06 12:14:15;;;;;;;11.52;3.33;;;;;;;;;;5114553;28;20342;-30
2023/10/06 12:16:44;;;;;;;12.03;3.20;;;;;;;;;;5114765;28;20354;-29
2023/10/06 12:19:11;;;;;;;10.35;3.03;;;;;;;;;;5114701;28;20261;-29
2023/10/06 12:21:36;;;;;;;12.95;3.60;;;;;;;;;;5114357;28;20027;-29
2023/10/06 12:24:01;;;;;;;16.00;3.67;;;;;;;;;;5114299;28;20029;-29
2023/10/06 12:26:26;;;;;;;15.97;3.43;;;;;;;;;;5114255;28;20047;-29
2023/10/06 12:28:53;;;;;;;15.97;3.60;;;;;;;;;;5114168;28;20072;-29
2023/10/06 12:31:19;;;;;;;14.00;3.40;;;;;;;;;;5114333;28;20518;-29
2023/10/06 12:33:45;;;;;;;10.47;3.30;;;;;;;;;;5114121;28;20095;-29
2023/10/06 12:36:12;;;;;;;11.93;3.30;;;;;;;;;;5114381;28;20030;-29
2023/10/06 12:38:39;;;;;;;14.35;3.30;;;;;;;;;;5114195;28;20023;-29
2023/10/06 12:41:06;;;;;;;13.82;2.90;;;;;;;;;;5113792;28;20020;-29
2023/10/06 12:43:35;;;;;;;14.38;3.13;;;;;;;;;;5114268;28;20019;-29
2023/10/06 12:46:03;;;;;;;12.15;3.03;;;;;;;;;;5114028;28;20099;-29
2023/10/06 12:48:30;;;;;;;14.65;2.88;;;;;;;;;;5113912;28;20020;-36
2023/10/06 12:50:55;;;;;;;9.48;2.85;;;;;;;;;;5114027;28;20051;-29
2023/10/06 12:53:21;;;;;;;16.83;2.72;;;;;;;;;;5114148;28;20027;-29
2023/10/06 12:55:56;;;;;;;15.68;2.90;;;;;;;;;;5113989;28;20032;-29
2023/10/06 12:58:21;;;;;;;13.32;3.28;;;;;;;;;;5114147;28;20028;-29
2023/10/06 13:00:46;;;;;;;12.15;3.00;;;;;;;;;;5113893;28;20234;-29
2023/10/06 13:03:21;;;;;;;16.97;3.33;;;;;;;;;;5113818;28;20016;-29
2023/10/06 13:05:47;;;;;;;17.25;3.40;;;;;;;;;;5113756;28;20059;-29
2023/10/06 13:08:16;;;;;;;17.60;3.55;;;;;;;;;;5114078;28;20054;-29
2023/10/06 13:10:42;;;;;;;14.43;3.30;;;;;;;;;;5113783;28;20024;-29
2023/10/06 13:13:08;;;;;;;14.68;2.97;;;;;;;;;;5113691;28;20027;-29
2023/10/06 13:15:33;;;;;;;15.35;3.10;;;;;;;;;;5113267;28;20024;-29
2023/10/06 13:18:00;;;;;;;21.73;3.53;;;;;;;;;;5112107;28;20030;-32
2023/10/06 13:20:25;;;;;;;14.52;3.13;;;;;;;;;;5111707;28;20019;-29
2023/10/06 13:22:50;;;;;;;10.93;3.40;;;;;;;;;;5112239;28;20015;-29
2023/10/06 13:25:17;;;;;;;13.50;3.33;;;;;;;;;;5112297;28;20019;-29
2023/10/06 13:27:49;;;;;;;9.73;2.80;;;;;;;;;;5112635;28;20020;-29
2023/10/06 13:30:16;;;;;;;13.13;3.00;;;;;;;;;;5094859;28;20081;-29
2023/10/06 13:32:42;;;;;;;16.25;3.17;;;;;;;;;;5113839;28;20027;-29
2023/10/06 13:35:17;;;;;;;13.02;2.90;;;;;;;;;;5113414;28;20016;-29
2023/10/06 13:37:48;;;;;;;12.23;3.13;;;;;;;;;;5113813;28;20450;-29
2023/10/06 13:40:15;;;;;;;11.40;3.15;;;;;;;;;;5113733;28;20026;-29
2023/10/06 13:42:45;;;;;;;14.05;3.00;;;;;;;;;;5113375;28;20077;-29
2023/10/06 13:45:23;;;;;;;12.05;3.13;;;;;;;;;;5113648;28;20076;-29
2023/10/06 13:47:55;;;;;;;11.20;2.92;;;;;;;;;;5113312;28;20057;-29
2023/10/06 13:50:25;;;;;;;15.68;3.13;;;;;;;;;;5113259;28;20052;-29
2023/10/06 13:52:51;;;;;;;13.45;3.42;;;;;;;;;;5113644;28;20027;-29
2023/10/06 13:55:17;;;;;;;10.57;2.88;;;;;;;;;;5113583;28;20347;-29
2023/10/06 13:57:44;;;;;;;13.18;3.53;;;;;;;;;;5113197;28;20012;-31
2023/10/06 14:00:13;;;;;;;16.40;3.38;;;;;;;;;;5113489;28;20019;-29
2023/10/06 14:02:38;;;;;;;11.70;3.20;;;;;;;;;;5113572;28;20021;-29
2023/10/06 14:05:03;;;;;;;14.57;3.22;;;;;;;;;;5115880;28;20516;-29
2023/10/06 14:07:31;;;;;;;12.48;3.10;;;;;;;;;;5117156;28;20011;-29
2023/10/06 14:09:56;;;;;;;13.35;3.30;;;;;;;;;;5117159;28;20038;-29
2023/10/06 14:12:22;;;;;;;19.52;3.70;;;;;;;;;;5117055;28;20020;-29
2023/10/06 14:17:29;;;;;;;15.00;2.90;;;;;;;;;;5117100;28;20032;-29
2023/10/06 14:19:54;;;;;;;14.20;3.40;;;;;;;;;;5117281;28;20252;-29
2023/10/06 14:22:23;;;;;;;14.37;3.27;;;;;;;;;;5116549;28;20110;-29
2023/10/06 14:24:49;;;;;;;13.15;3.03;;;;;;;;;;5116813;28;20608;-29
2023/10/06 14:27:18;;;;;;;9.52;2.85;;;;;;;;;;5116803;28;20019;-29
2023/10/06 14:29:44;;;;;;;15.55;3.17;;;;;;;;;;5116759;28;20023;-29
2023/10/06 14:32:18;;;;;;;9.00;2.60;;;;;;;;;;5116803;28;20526;-29
2023/10/06 14:34:57;;;;;;;12.27;3.08;;;;;;;;;;5116379;28;20027;-29
2023/10/06 14:37:52;;;;;;;14.82;2.88;;;;;;;;;;5116666;28;20020;-29
2023/10/06 14:48:28;;;;;;;8.50;2.97;;;;;;;;;;5117007;28;20062;-29